createdAt,value
2018-05-23T00:00:12.728Z,51.20
2018-05-23T00:02:41.083Z,51.21
2018-05-23T00:05:09.410Z,51.33
2018-05-23T00:07:37.755Z,51.18
2018-05-23T00:10:06.087Z,50.18
2018-05-23T00:12:34.423Z,50.36
2018-05-23T00:15:02.750Z,49.68
2018-05-23T00:17:31.109Z,49.61
2018-05-23T00:19:59.432Z,49.76
2018-05-23T00:22:27.748Z,50.15
2018-05-23T00:24:56.093Z,50.11
2018-05-23T00:27:24.416Z,50.24
2018-05-23T00:29:52.761Z,49.92
2018-05-23T00:32:21.085Z,49.65
2018-05-23T00:34:49.432Z,49.56
2018-05-23T00:37:17.757Z,49.14
2018-05-23T00:39:46.104Z,49.15
2018-05-23T00:42:14.428Z,48.75
2018-05-23T00:44:42.771Z,49.04
2018-05-23T00:47:11.092Z,48.63
2018-05-23T00:49:39.436Z,48.27
2018-05-23T00:52:07.760Z,47.66
2018-05-23T00:54:36.113Z,48.01
2018-05-23T00:57:04.437Z,47.87
2018-05-23T00:59:32.780Z,47.63
2018-05-23T01:02:01.105Z,48.01
2018-05-23T01:04:29.453Z,48.27
2018-05-23T01:06:57.788Z,48.48
2018-05-23T01:09:26.133Z,47.98
2018-05-23T01:11:54.462Z,47.88
2018-05-23T01:14:22.800Z,47.70
2018-05-23T01:16:51.124Z,47.68
2018-05-23T01:19:19.474Z,48.00
2018-05-23T01:21:47.800Z,47.99
2018-05-23T01:24:16.135Z,47.82
2018-05-23T01:26:44.461Z,48.26
2018-05-23T01:29:12.808Z,48.39
2018-05-23T01:31:41.124Z,48.40
2018-05-23T01:34:09.476Z,48.74
2018-05-23T01:36:37.801Z,48.88
2018-05-23T01:39:06.144Z,49.06
2018-05-23T01:41:34.476Z,49.06
2018-05-23T01:44:02.821Z,49.21
2018-05-23T01:46:31.153Z,49.17
2018-05-23T01:49:11.560Z,49.40
2018-05-23T01:51:39.889Z,49.20
2018-05-23T01:54:08.242Z,49.35
2018-05-23T01:56:36.565Z,49.22
2018-05-23T01:59:04.914Z,49.06
2018-05-23T02:01:33.237Z,48.87
2018-05-23T02:04:01.581Z,48.94
2018-05-23T02:06:29.909Z,48.99
2018-05-23T02:08:58.249Z,49.12
2018-05-23T02:11:26.577Z,49.43
2018-05-23T02:13:54.912Z,49.29
2018-05-23T02:16:23.237Z,49.34
2018-05-23T02:18:51.582Z,49.24
2018-05-23T02:21:19.912Z,49.16
2018-05-23T02:23:48.250Z,49.10
2018-05-23T02:26:16.572Z,49.43
2018-05-23T02:28:44.924Z,49.32
2018-05-23T02:31:13.261Z,49.23
2018-05-23T02:33:41.589Z,49.45
2018-05-23T02:36:09.941Z,49.57
2018-05-23T02:38:38.262Z,49.60
2018-05-23T02:41:06.606Z,49.12
2018-05-23T02:43:34.921Z,49.53
2018-05-23T02:46:03.276Z,49.39
2018-05-23T02:48:31.597Z,49.61
2018-05-23T02:50:59.946Z,49.33
2018-05-23T02:53:28.264Z,49.40
2018-05-23T02:55:56.608Z,49.20
2018-05-23T02:58:24.932Z,48.84
2018-05-23T03:00:53.281Z,48.59
2018-05-23T03:03:21.609Z,48.57
2018-05-23T03:05:49.961Z,48.29
2018-05-23T03:08:18.293Z,48.26
2018-05-23T03:10:46.644Z,48.56
2018-05-23T03:13:14.968Z,48.76
2018-05-23T03:15:43.309Z,48.89
2018-05-23T03:18:11.649Z,48.79
2018-05-23T03:20:39.997Z,48.47
2018-05-23T03:23:08.312Z,48.58
2018-05-23T03:25:36.652Z,49.07
2018-05-23T03:28:04.973Z,49.08
2018-05-23T03:30:33.312Z,48.89
2018-05-23T03:33:01.640Z,49.30
2018-05-23T03:35:29.980Z,49.61
2018-05-23T03:37:58.331Z,49.16
2018-05-23T03:40:26.672Z,48.98
2018-05-23T03:42:55.000Z,49.38
2018-05-23T03:45:23.348Z,49.37
2018-05-23T03:47:51.668Z,49.28
2018-05-23T03:50:20.013Z,49.65
2018-05-23T03:52:48.341Z,49.92
2018-05-23T03:55:16.742Z,49.99
2018-05-23T03:57:45.017Z,49.84
2018-05-23T04:00:25.177Z,50.04
2018-05-23T04:03:06.095Z,50.01
2018-05-23T04:05:46.029Z,50.21
2018-05-23T04:08:14.364Z,49.96
2018-05-23T04:10:42.712Z,50.03
2018-05-23T04:13:11.035Z,50.00
2018-05-23T04:15:39.376Z,50.32
2018-05-23T04:18:07.692Z,50.58
2018-05-23T04:20:36.436Z,50.56
2018-05-23T04:23:04.759Z,50.89
2018-05-23T04:25:33.104Z,50.87
2018-05-23T04:28:01.429Z,51.46
2018-05-23T04:30:29.773Z,51.78
2018-05-23T04:32:58.107Z,51.41
2018-05-23T04:35:26.452Z,51.39
2018-05-23T04:37:54.776Z,51.51
2018-05-23T04:40:23.121Z,51.58
2018-05-23T04:42:51.446Z,51.37
2018-05-23T04:45:19.792Z,51.37
2018-05-23T04:47:48.116Z,50.98
2018-05-23T04:50:16.481Z,50.96
2018-05-23T04:52:44.804Z,50.98
2018-05-23T04:55:13.152Z,51.35
2018-05-23T04:57:41.499Z,51.55
2018-05-23T05:00:09.845Z,50.99
2018-05-23T05:02:38.167Z,51.35
2018-05-23T05:05:06.490Z,51.31
2018-05-23T05:07:34.845Z,51.18
2018-05-23T05:10:03.295Z,51.67
2018-05-23T05:12:31.532Z,51.71
2018-05-23T05:14:59.861Z,51.39
2018-05-23T05:17:28.205Z,51.59
2018-05-23T05:19:56.546Z,51.91
2018-05-23T05:22:25.716Z,51.24
2018-05-23T05:24:54.066Z,51.47
2018-05-23T05:27:22.419Z,51.38
2018-05-23T05:29:50.745Z,51.46
2018-05-23T05:32:19.101Z,51.21
2018-05-23T05:34:47.442Z,51.40
2018-05-23T05:37:15.792Z,50.84
2018-05-23T05:39:44.120Z,51.33
2018-05-23T05:42:12.527Z,51.34
2018-05-23T05:44:40.865Z,51.20
2018-05-23T05:47:09.222Z,50.99
2018-05-23T05:49:37.560Z,50.96
2018-05-23T05:52:05.922Z,51.13
2018-05-23T05:54:34.250Z,50.40
2018-05-23T05:57:02.596Z,50.29
2018-05-23T05:59:30.920Z,50.78
2018-05-23T06:02:00.026Z,50.13
2018-05-23T06:04:28.357Z,50.46
2018-05-23T06:06:56.694Z,49.96
2018-05-23T06:09:25.031Z,50.32
2018-05-23T06:11:53.376Z,50.35
2018-05-23T06:14:21.705Z,49.79
2018-05-23T06:16:50.056Z,49.88
2018-05-23T06:19:18.385Z,49.55
2018-05-23T06:21:46.809Z,49.42
2018-05-23T06:24:15.140Z,49.33
2018-05-23T06:26:43.502Z,49.02
2018-05-23T06:29:11.833Z,48.59
2018-05-23T06:31:40.181Z,47.94
2018-05-23T06:34:08.510Z,47.91
2018-05-23T06:36:36.864Z,47.91
2018-05-23T06:39:05.894Z,48.07
2018-05-23T06:41:34.479Z,48.28
2018-05-23T06:44:02.806Z,48.51
2018-05-23T06:46:31.152Z,47.63
2018-05-23T06:48:59.477Z,48.03
2018-05-23T06:51:27.836Z,47.15
2018-05-23T06:53:56.156Z,47.84
2018-05-23T06:56:24.518Z,47.60
2018-05-23T06:58:52.856Z,47.93
2018-05-23T07:01:22.181Z,48.16
2018-05-23T07:03:50.519Z,48.05
2018-05-23T07:06:18.854Z,47.23
2018-05-23T07:08:47.210Z,47.37
2018-05-23T07:11:15.598Z,47.75
2018-05-23T07:13:43.884Z,46.56
2018-05-23T07:16:12.218Z,46.84
2018-05-23T07:18:40.572Z,47.13
2018-05-23T07:21:08.901Z,46.84
2018-05-23T07:23:37.257Z,46.60
2018-05-23T07:26:05.584Z,47.03
2018-05-23T07:28:33.938Z,47.04
2018-05-23T07:31:02.265Z,47.95
2018-05-23T07:33:30.656Z,47.66
2018-05-23T07:35:58.980Z,47.49
2018-05-23T07:38:27.417Z,47.27
2018-05-23T07:40:55.649Z,46.68
2018-05-23T07:43:24.003Z,46.72
2018-05-23T07:45:52.396Z,47.25
2018-05-23T07:48:20.678Z,47.00
2018-05-23T07:50:49.005Z,46.22
2018-05-23T07:53:17.361Z,45.70
2018-05-23T07:55:45.689Z,46.73
2018-05-23T07:58:14.039Z,46.13
2018-05-23T08:00:42.384Z,44.98
2018-05-23T08:03:10.732Z,46.57
2018-05-23T08:05:39.061Z,46.23
2018-05-23T08:08:07.413Z,46.01
2018-05-23T08:10:35.733Z,45.58
2018-05-23T08:13:04.092Z,44.88
2018-05-23T08:15:32.433Z,44.98
2018-05-23T08:18:00.793Z,44.72
2018-05-23T08:20:29.121Z,44.42
2018-05-23T08:22:57.484Z,44.00
2018-05-23T08:25:25.809Z,44.48
2018-05-23T08:27:54.160Z,44.07
2018-05-23T08:30:22.497Z,44.04
2018-05-23T08:32:50.851Z,43.64
2018-05-23T08:35:19.172Z,43.27
2018-05-23T08:37:47.524Z,43.58
2018-05-23T08:40:15.848Z,42.13
2018-05-23T08:42:44.201Z,41.53
2018-05-23T08:45:12.524Z,41.47
2018-05-23T08:47:40.881Z,42.02
2018-05-23T08:50:09.214Z,41.70
2018-05-23T08:52:37.568Z,41.49
2018-05-23T08:55:05.905Z,41.24
2018-05-23T08:57:34.260Z,38.65
2018-05-23T09:00:02.598Z,41.46
2018-05-23T09:02:30.952Z,41.38
2018-05-23T09:04:59.329Z,40.99
2018-05-23T09:07:27.626Z,40.42
2018-05-23T09:09:55.981Z,41.10
2018-05-23T09:12:24.397Z,41.23
2018-05-23T09:14:52.656Z,40.80
2018-05-23T09:17:20.997Z,40.31
2018-05-23T09:19:49.350Z,40.78
2018-05-23T09:22:17.677Z,40.36
2018-05-23T09:24:46.025Z,38.88
2018-05-23T09:27:14.353Z,38.95
2018-05-23T09:29:42.701Z,39.29
2018-05-23T09:32:11.105Z,38.60
2018-05-23T09:34:39.377Z,38.72
2018-05-23T09:37:07.721Z,39.24
2018-05-23T09:39:36.059Z,38.87
2018-05-23T09:42:04.384Z,37.95
2018-05-23T09:44:32.733Z,37.31
2018-05-23T09:47:01.066Z,36.84
2018-05-23T09:49:29.412Z,37.15
2018-05-23T09:51:57.737Z,37.75
2018-05-23T09:54:26.088Z,37.92
2018-05-23T09:56:54.410Z,37.75
2018-05-23T09:59:22.761Z,38.17
2018-05-23T10:01:51.093Z,38.30
2018-05-23T10:04:19.445Z,37.63
2018-05-23T10:06:47.769Z,37.93
2018-05-23T10:09:16.120Z,37.51
2018-05-23T10:11:44.449Z,37.39
2018-05-23T10:14:12.816Z,37.84
2018-05-23T10:16:41.125Z,37.88
2018-05-23T10:19:09.473Z,38.85
2018-05-23T10:21:37.805Z,39.81
2018-05-23T10:24:06.150Z,39.34
2018-05-23T10:26:34.486Z,37.55
2018-05-23T10:29:02.836Z,37.15
2018-05-23T10:31:31.157Z,37.76
2018-05-23T10:33:59.506Z,38.24
2018-05-23T10:36:27.837Z,36.71
2018-05-23T10:38:56.275Z,36.44
2018-05-23T10:41:24.529Z,36.69
2018-05-23T10:43:52.876Z,37.56
2018-05-23T10:46:21.281Z,36.13
2018-05-23T10:48:49.557Z,36.72
2018-05-23T10:51:17.885Z,35.50
2018-05-23T10:53:46.232Z,36.37
2018-05-23T10:56:14.566Z,36.06
2018-05-23T10:58:42.917Z,35.92
2018-05-23T11:01:11.321Z,36.44
2018-05-23T11:03:39.876Z,36.28
2018-05-23T11:06:08.217Z,35.50
2018-05-23T11:08:36.657Z,36.56
2018-05-23T11:11:05.077Z,36.70
2018-05-23T11:13:33.412Z,36.20
2018-05-23T11:16:01.931Z,35.67
2018-05-23T11:18:30.346Z,35.90
2018-05-23T11:20:58.724Z,36.12
2018-05-23T11:23:27.064Z,37.09
2018-05-23T11:25:55.412Z,37.40
2018-05-23T11:28:23.736Z,36.00
2018-05-23T11:30:52.093Z,35.91
2018-05-23T11:33:20.416Z,36.43
2018-05-23T11:35:48.848Z,34.95
2018-05-23T11:38:17.106Z,35.27
2018-05-23T11:40:46.064Z,36.55
2018-05-23T11:43:14.399Z,36.61
2018-05-23T11:45:42.748Z,34.72
2018-05-23T11:48:28.088Z,35.12
2018-05-23T11:50:56.444Z,34.96
2018-05-23T11:53:24.767Z,34.06
2018-05-23T11:55:53.121Z,34.07
2018-05-23T11:58:21.443Z,33.93
2018-05-23T12:00:49.798Z,34.07
2018-05-23T12:03:18.115Z,34.71
2018-05-23T12:05:46.469Z,34.72
2018-05-23T12:08:14.797Z,33.21
2018-05-23T12:10:43.573Z,33.88
2018-05-23T12:13:11.888Z,33.34
2018-05-23T12:15:40.241Z,33.46
2018-05-23T12:18:08.560Z,32.99
2018-05-23T12:20:36.916Z,33.44
2018-05-23T12:23:05.242Z,33.48
2018-05-23T12:25:33.594Z,33.70
2018-05-23T12:28:01.925Z,33.08
2018-05-23T12:30:31.084Z,32.59
2018-05-23T12:32:59.409Z,32.62
2018-05-23T12:35:27.760Z,32.06
2018-05-23T12:37:56.089Z,32.11
2018-05-23T12:40:24.435Z,32.27
2018-05-23T12:42:52.768Z,31.30
2018-05-23T12:45:21.116Z,31.70
2018-05-23T12:47:49.454Z,32.04
2018-05-23T12:50:18.824Z,32.99
2018-05-23T12:52:47.148Z,32.52
2018-05-23T12:55:15.492Z,32.33
2018-05-23T12:57:43.816Z,32.18
2018-05-23T13:00:12.160Z,31.62
2018-05-23T13:02:40.488Z,31.88
2018-05-23T13:05:09.181Z,32.07
2018-05-23T13:07:37.575Z,31.05
2018-05-23T13:10:05.928Z,30.99
2018-05-23T13:12:34.362Z,31.15
2018-05-23T13:15:02.604Z,30.74
2018-05-23T13:17:30.928Z,29.90
2018-05-23T13:19:59.272Z,31.03
2018-05-23T13:22:27.597Z,31.44
2018-05-23T13:24:55.920Z,31.53
2018-05-23T13:27:24.268Z,30.96
2018-05-23T13:29:53.137Z,30.15
2018-05-23T13:32:21.481Z,29.60
2018-05-23T13:34:49.813Z,29.25
2018-05-23T13:37:18.152Z,29.47
2018-05-23T13:39:46.485Z,29.43
2018-05-23T13:42:14.836Z,28.79
2018-05-23T13:44:43.165Z,28.98
2018-05-23T13:47:11.706Z,28.84
2018-05-23T13:49:40.032Z,29.34
2018-05-23T13:52:08.381Z,28.88
2018-05-23T13:54:36.880Z,29.29
2018-05-23T13:57:05.387Z,29.25
2018-05-23T13:59:33.729Z,28.79
2018-05-23T14:02:02.105Z,29.21
2018-05-23T14:04:30.465Z,29.32
2018-05-23T14:06:59.447Z,27.69
2018-05-23T14:09:27.965Z,28.36
2018-05-23T14:11:56.476Z,28.82
2018-05-23T14:14:24.987Z,29.70
2018-05-23T14:16:53.459Z,28.36
2018-05-23T14:19:22.052Z,28.43
2018-05-23T14:21:50.358Z,29.01
2018-05-23T14:24:18.699Z,28.87
2018-05-23T14:26:47.340Z,27.50
2018-05-23T14:29:15.897Z,27.73
2018-05-23T14:31:44.459Z,28.07
2018-05-23T14:34:12.854Z,28.92
2018-05-23T14:36:41.357Z,28.60
2018-05-23T14:39:10.569Z,29.28
2018-05-23T14:41:38.908Z,28.91
2018-05-23T14:44:07.233Z,27.82
2018-05-23T14:46:35.576Z,27.55
2018-05-23T14:49:04.001Z,28.03
2018-05-23T14:51:32.353Z,27.22
2018-05-23T14:54:00.677Z,28.11
2018-05-23T14:56:29.020Z,27.94
2018-05-23T14:58:58.214Z,29.32
2018-05-23T15:01:26.560Z,27.81
2018-05-23T15:03:54.884Z,27.30
2018-05-23T15:06:23.227Z,27.84
2018-05-23T15:08:51.557Z,28.06
2018-05-23T15:11:19.913Z,27.78
2018-05-23T15:13:48.237Z,27.13
2018-05-23T15:16:16.584Z,28.33
2018-05-23T15:18:44.914Z,28.13
2018-05-23T15:21:13.259Z,28.03
2018-05-23T15:23:41.588Z,27.12
2018-05-23T15:26:09.949Z,27.23
2018-05-23T15:28:38.524Z,27.89
2018-05-23T15:31:06.855Z,26.86
2018-05-23T15:33:35.200Z,26.40
2018-05-23T15:36:03.525Z,27.42
2018-05-23T15:38:31.868Z,26.86
2018-05-23T15:41:00.215Z,26.85
2018-05-23T15:43:28.551Z,26.44
2018-05-23T15:45:56.877Z,26.65
2018-05-23T15:48:25.234Z,26.87
2018-05-23T15:50:53.564Z,27.52
2018-05-23T15:53:21.909Z,27.76
2018-05-23T15:55:50.465Z,27.61
2018-05-23T15:58:18.812Z,27.24
2018-05-23T16:00:47.140Z,27.24
2018-05-23T16:03:15.488Z,27.98
2018-05-23T16:05:43.813Z,27.70
2018-05-23T16:08:12.156Z,27.72
2018-05-23T16:10:40.485Z,27.75
2018-05-23T16:13:08.830Z,28.52
2018-05-23T16:15:38.233Z,28.28
2018-05-23T16:18:06.592Z,27.97
2018-05-23T16:20:34.952Z,27.14
2018-05-23T16:23:03.269Z,27.15
2018-05-23T16:25:31.595Z,27.22
2018-05-23T16:27:59.950Z,27.99
2018-05-23T16:30:28.284Z,28.89
2018-05-23T16:32:56.628Z,29.97
2018-05-23T16:35:25.104Z,29.01
2018-05-23T16:37:53.448Z,28.12
2018-05-23T16:40:22.490Z,28.60
2018-05-23T16:42:50.904Z,29.61
2018-05-23T16:45:20.044Z,29.66
2018-05-23T16:47:48.405Z,29.80
2018-05-23T16:50:16.738Z,28.87
2018-05-23T16:52:45.096Z,29.17
2018-05-23T16:55:13.420Z,29.86
2018-05-23T16:57:41.777Z,29.68
2018-05-23T17:00:10.101Z,29.35
2018-05-23T17:02:38.506Z,29.49
2018-05-23T17:05:06.817Z,29.46
2018-05-23T17:07:35.164Z,28.43
2018-05-23T17:10:03.489Z,28.33
2018-05-23T17:12:31.889Z,28.24
2018-05-23T17:15:00.168Z,28.46
2018-05-23T17:17:28.523Z,29.18
2018-05-23T17:19:56.862Z,29.73
2018-05-23T17:22:25.197Z,30.13
2018-05-23T17:24:53.528Z,30.61
2018-05-23T17:27:21.953Z,29.76
2018-05-23T17:29:50.218Z,29.50
2018-05-23T17:32:18.535Z,30.50
2018-05-23T17:34:47.204Z,31.11
2018-05-23T17:37:15.528Z,31.52
2018-05-23T17:39:43.875Z,32.17
2018-05-23T17:42:12.200Z,32.70
2018-05-23T17:44:40.552Z,32.71
2018-05-23T17:47:08.887Z,33.06
2018-05-23T17:49:37.228Z,33.44
2018-05-23T17:52:05.555Z,33.43
2018-05-23T17:54:33.914Z,33.49
2018-05-23T17:57:02.308Z,33.58
2018-05-23T17:59:30.589Z,33.57
2018-05-23T18:01:58.913Z,33.73
2018-05-23T18:04:27.257Z,34.13
2018-05-23T18:06:55.589Z,33.47
2018-05-23T18:09:23.931Z,34.15
2018-05-23T18:11:52.261Z,34.57
2018-05-23T18:14:21.464Z,34.88
2018-05-23T18:16:49.833Z,35.14
2018-05-23T18:19:18.144Z,34.88
2018-05-23T18:21:46.469Z,34.81
2018-05-23T18:24:14.821Z,34.38
2018-05-23T18:26:43.152Z,34.24
2018-05-23T18:29:11.492Z,34.04
2018-05-23T18:31:39.824Z,33.92
2018-05-23T18:34:08.183Z,34.04
2018-05-23T18:36:36.509Z,33.71
2018-05-23T18:39:04.853Z,33.96
2018-05-23T18:41:33.180Z,33.92
2018-05-23T18:44:01.520Z,33.75
2018-05-23T18:46:29.856Z,33.81
2018-05-23T18:48:58.257Z,34.20
2018-05-23T18:51:26.596Z,34.33
2018-05-23T18:53:54.985Z,34.38
2018-05-23T18:56:23.387Z,34.23
2018-05-23T18:58:51.733Z,34.18
2018-05-23T19:01:20.084Z,34.02
2018-05-23T19:03:48.513Z,33.84
2018-05-23T19:06:16.942Z,34.10
2018-05-23T19:08:45.349Z,34.54
2018-05-23T19:11:13.721Z,34.36
2018-05-23T19:13:42.070Z,34.80
2018-05-23T19:16:10.402Z,35.04
2018-05-23T19:18:38.749Z,35.16
2018-05-23T19:21:07.155Z,35.36
2018-05-23T19:23:35.616Z,35.50
2018-05-23T19:26:04.042Z,35.67
2018-05-23T19:28:32.383Z,35.76
2018-05-23T19:31:00.716Z,35.67
2018-05-23T19:33:29.056Z,35.74
2018-05-23T19:35:57.429Z,35.77
2018-05-23T19:38:25.830Z,35.76
2018-05-23T19:40:54.220Z,35.91
2018-05-23T19:43:22.573Z,36.06
2018-05-23T19:45:50.995Z,36.40
2018-05-23T19:48:19.390Z,36.43
2018-05-23T19:50:48.064Z,36.97
2018-05-23T19:53:16.401Z,36.98
2018-05-23T19:55:44.753Z,36.09
2018-05-23T19:58:13.793Z,36.82
2018-05-23T20:00:42.148Z,37.23
2018-05-23T20:03:10.485Z,37.26
2018-05-23T20:05:38.840Z,37.85
2018-05-23T20:08:07.312Z,37.79
2018-05-23T20:10:35.520Z,37.81
2018-05-23T20:13:03.856Z,37.77
2018-05-23T20:15:32.201Z,38.30
2018-05-23T20:18:00.536Z,37.91
2018-05-23T20:20:28.884Z,38.37
2018-05-23T20:22:57.220Z,38.42
2018-05-23T20:25:25.568Z,38.87
2018-05-23T20:27:53.907Z,39.14
2018-05-23T20:30:22.263Z,39.41
2018-05-23T20:32:50.592Z,39.94
2018-05-23T20:35:18.954Z,39.25
2018-05-23T20:37:47.280Z,39.27
2018-05-23T20:40:15.624Z,39.20
2018-05-23T20:42:43.961Z,39.27
2018-05-23T20:45:12.312Z,39.08
2018-05-23T20:47:40.680Z,39.52
2018-05-23T20:50:08.984Z,39.47
2018-05-23T20:52:37.320Z,39.47
2018-05-23T20:55:05.666Z,39.81
2018-05-23T20:57:33.985Z,40.11
2018-05-23T21:00:02.332Z,40.42
2018-05-23T21:02:30.652Z,40.42
2018-05-23T21:04:58.996Z,40.72
2018-05-23T21:07:27.328Z,41.20
2018-05-23T21:09:55.682Z,40.97
2018-05-23T21:12:24.000Z,41.03
2018-05-23T21:14:52.356Z,41.02
2018-05-23T21:17:20.688Z,41.06
2018-05-23T21:19:49.041Z,41.04
2018-05-23T21:22:17.436Z,41.10
2018-05-23T21:24:45.768Z,41.04
2018-05-23T21:27:14.111Z,41.18
2018-05-23T21:29:42.466Z,40.96
2018-05-23T21:32:10.797Z,41.10
2018-05-23T21:34:39.243Z,41.31
2018-05-23T21:37:07.529Z,41.59
2018-05-23T21:39:35.868Z,41.74
2018-05-23T21:42:04.221Z,41.85
2018-05-23T21:44:32.893Z,41.87
2018-05-23T21:47:01.262Z,41.67
2018-05-23T21:49:29.583Z,41.84
2018-05-23T21:51:57.941Z,41.51
2018-05-23T21:54:26.306Z,41.47
2018-05-23T21:56:54.652Z,41.26
2018-05-23T21:59:22.971Z,41.23
2018-05-23T22:01:51.325Z,41.23
2018-05-23T22:04:19.781Z,40.71
2018-05-23T22:06:48.137Z,40.98
2018-05-23T22:09:16.453Z,40.71
2018-05-23T22:11:44.795Z,40.65
2018-05-23T22:14:13.117Z,40.56
2018-05-23T22:16:41.469Z,40.78
2018-05-23T22:19:09.798Z,40.80
2018-05-23T22:21:38.136Z,41.08
2018-05-23T22:24:06.462Z,41.43
2018-05-23T22:26:34.808Z,41.30
2018-05-23T22:29:03.124Z,41.41
2018-05-23T22:31:31.468Z,41.21
2018-05-23T22:33:59.792Z,41.36
2018-05-23T22:36:28.133Z,41.44
2018-05-23T22:38:56.451Z,41.36
2018-05-23T22:41:24.792Z,41.83
2018-05-23T22:43:53.114Z,42.04
2018-05-23T22:46:21.448Z,42.68
2018-05-23T22:48:49.767Z,42.61
2018-05-23T22:51:18.109Z,42.05
2018-05-23T22:53:46.429Z,41.02
2018-05-23T22:56:14.773Z,41.29
2018-05-23T22:58:43.136Z,41.29
2018-05-23T23:01:11.480Z,41.41
2018-05-23T23:03:39.802Z,41.83
2018-05-23T23:06:08.139Z,41.98
2018-05-23T23:08:36.455Z,41.88
2018-05-23T23:11:04.796Z,41.90
2018-05-23T23:13:33.115Z,42.14
2018-05-23T23:16:01.461Z,41.87
2018-05-23T23:18:29.785Z,42.08
2018-05-23T23:20:58.129Z,42.01
2018-05-23T23:23:26.448Z,42.10
2018-05-23T23:25:54.793Z,42.06
2018-05-23T23:28:23.112Z,42.14
2018-05-23T23:30:51.768Z,41.96
2018-05-23T23:33:20.089Z,42.07
2018-05-23T23:35:48.408Z,41.87
2018-05-23T23:38:16.753Z,42.10
2018-05-23T23:40:45.077Z,42.23
2018-05-23T23:43:13.412Z,42.08
2018-05-23T23:45:41.741Z,42.48
2018-05-23T23:48:10.076Z,42.63
2018-05-23T23:50:38.401Z,43.12
2018-05-23T23:53:06.740Z,43.04
2018-05-23T23:55:35.054Z,43.15
2018-05-23T23:58:03.398Z,43.29
